createdAt,value
2023-02-03T00:00:51.112Z,2.67
2023-02-03T00:03:18.275Z,2.47
2023-02-03T00:05:47.750Z,2.33
2023-02-03T00:08:15.381Z,3.97
2023-02-03T00:10:42.384Z,2.53
2023-02-03T00:13:16.388Z,2.27
2023-02-03T00:16:02.741Z,2.33
2023-02-03T00:18:29.745Z,2.67
2023-02-03T00:20:56.399Z,2.67
2023-02-03T00:23:23.447Z,2.07
2023-02-03T00:25:50.561Z,2.37
2023-02-03T00:28:18.701Z,1.80
2023-02-03T00:30:45.754Z,1.80
2023-02-03T00:33:12.571Z,2.33
2023-02-03T00:35:43.096Z,2.77
2023-02-03T00:38:09.945Z,2.37
2023-02-03T00:40:36.519Z,1.83
2023-02-03T00:43:03.283Z,2.83
2023-02-03T00:45:29.949Z,1.77
2023-02-03T00:47:56.549Z,1.57
2023-02-03T00:50:23.335Z,1.87
2023-02-03T00:52:49.917Z,3.13
2023-02-03T00:55:16.624Z,2.13
2023-02-03T00:57:43.304Z,2.33
2023-02-03T01:00:11.308Z,2.50
2023-02-03T01:02:37.952Z,3.77
2023-02-03T01:05:04.804Z,2.83
2023-02-03T01:07:33.387Z,2.40
2023-02-03T01:10:00.144Z,2.20
2023-02-03T01:12:29.582Z,2.00
2023-02-03T01:14:56.199Z,2.70
2023-02-03T01:17:22.877Z,1.50
2023-02-03T01:19:51.960Z,1.50
2023-02-03T01:22:18.662Z,1.47
2023-02-03T01:24:45.327Z,1.40
2023-02-03T01:27:12.094Z,2.23
2023-02-03T01:29:39.017Z,1.40
2023-02-03T01:32:05.843Z,2.13
2023-02-03T01:34:34.935Z,1.53
2023-02-03T01:37:01.506Z,1.37
2023-02-03T01:39:28.301Z,2.53
2023-02-03T01:41:55.937Z,1.53
2023-02-03T01:44:39.892Z,1.90
2023-02-03T01:47:18.685Z,2.87
2023-02-03T01:49:49.976Z,2.00
2023-02-03T01:52:16.897Z,1.83
2023-02-03T01:54:46.142Z,1.60
2023-02-03T01:57:19.160Z,2.40
2023-02-03T01:59:46.264Z,1.80
2023-02-03T02:02:13.221Z,1.90
2023-02-03T02:05:17.825Z,1.43
2023-02-03T02:07:45.734Z,1.80
2023-02-03T02:10:13.116Z,0.73
2023-02-03T02:12:42.028Z,1.30
2023-02-03T02:15:09.295Z,0.83
2023-02-03T02:17:41.977Z,1.00
2023-02-03T02:20:38.953Z,0.90
2023-02-03T02:23:23.379Z,1.23
2023-02-03T02:26:11.011Z,0.87
2023-02-03T02:29:25.481Z,1.70
2023-02-03T02:32:07.402Z,0.67
2023-02-03T02:34:48.901Z,0.50
2023-02-03T02:37:37.898Z,0.50
2023-02-03T02:40:24.339Z,0.80
2023-02-03T02:43:11.183Z,1.27
2023-02-03T02:46:02.376Z,1.63
2023-02-03T02:48:38.789Z,0.50
2023-02-03T02:51:07.318Z,0.50
2023-02-03T02:53:37.805Z,1.13
2023-02-03T02:56:07.996Z,0.47
2023-02-03T02:58:36.444Z,0.93
2023-02-03T03:01:03.915Z,0.23
2023-02-03T03:03:30.598Z,0.70
2023-02-03T03:06:01.403Z,0.97
2023-02-03T03:08:40.967Z,1.13
2023-02-03T03:11:07.648Z,0.67
2023-02-03T03:13:39.385Z,0.37
2023-02-03T03:16:07.848Z,0.97
2023-02-03T03:18:43.534Z,0.93
2023-02-03T03:21:14.701Z,0.20
2023-02-03T03:23:44.839Z,0.60
2023-02-03T03:26:22.538Z,0.50
2023-02-03T03:28:52.118Z,1.33
2023-02-03T03:31:20.244Z,0.77
2023-02-03T03:33:47.952Z,1.13
2023-02-03T03:36:25.562Z,0.30
2023-02-03T03:39:17.720Z,1.13
2023-02-03T03:42:01.118Z,0.20
2023-02-03T03:44:33.234Z,0.80
2023-02-03T03:47:06.820Z,1.43
2023-02-03T03:50:13.207Z,0.60
2023-02-03T03:53:01.844Z,0.50
2023-02-03T03:55:31.617Z,0.43
2023-02-03T03:58:11.805Z,0.97
2023-02-03T04:00:40.087Z,0.30
2023-02-03T04:03:12.454Z,0.30
2023-02-03T04:05:40.054Z,0.80
2023-02-03T04:08:07.097Z,1.10
2023-02-03T04:10:38.645Z,0.93
2023-02-03T04:13:05.778Z,1.50
2023-02-03T04:15:33.580Z,1.27
2023-02-03T04:18:01.542Z,1.23
2023-02-03T04:20:32.137Z,0.70
2023-02-03T04:22:59.132Z,1.07
2023-02-03T04:25:27.296Z,0.50
2023-02-03T04:27:54.873Z,0.67
2023-02-03T04:30:21.553Z,0.60
2023-02-03T04:32:48.490Z,0.80
2023-02-03T04:35:15.443Z,1.63
2023-02-03T04:37:42.065Z,1.03
2023-02-03T04:40:10.435Z,0.47
2023-02-03T04:42:38.877Z,0.80
2023-02-03T04:45:06.940Z,1.27
2023-02-03T04:47:33.583Z,2.70
2023-02-03T04:50:00.346Z,0.70
2023-02-03T04:52:26.987Z,0.90
2023-02-03T04:54:53.606Z,0.83
2023-02-03T04:57:20.281Z,0.87
2023-02-03T04:59:46.895Z,0.53
2023-02-03T05:02:13.598Z,0.50
2023-02-03T05:04:40.173Z,1.00
2023-02-03T05:07:06.780Z,0.77
2023-02-03T05:09:33.362Z,0.60
2023-02-03T05:11:59.906Z,0.70
2023-02-03T05:14:26.569Z,1.60
2023-02-03T05:16:53.261Z,2.47
2023-02-03T05:19:19.912Z,0.67
2023-02-03T05:21:46.483Z,0.50
2023-02-03T05:24:13.087Z,0.43
2023-02-03T05:26:39.638Z,3.20
2023-02-03T05:29:06.282Z,1.63
2023-02-03T05:31:33.673Z,1.77
2023-02-03T05:34:00.362Z,2.70
2023-02-03T05:36:26.934Z,2.00
2023-02-03T05:38:53.494Z,3.33
2023-02-03T05:41:38.809Z,4.53
2023-02-03T05:44:05.427Z,5.37
2023-02-03T05:46:32.072Z,6.70
2023-02-03T05:48:58.681Z,5.67
2023-02-03T05:51:25.337Z,4.57
2023-02-03T05:53:53.764Z,5.00
2023-02-03T05:56:20.422Z,4.07
2023-02-03T05:58:47.016Z,2.50
2023-02-03T06:01:13.616Z,2.10
2023-02-03T06:03:40.274Z,1.47
2023-02-03T06:06:06.999Z,3.83
2023-02-03T06:08:33.561Z,2.27
2023-02-03T06:11:00.721Z,1.90
2023-02-03T06:13:27.818Z,1.33
2023-02-03T06:15:54.543Z,1.90
2023-02-03T06:18:21.325Z,1.30
2023-02-03T06:20:48.035Z,4.00
2023-02-03T06:23:17.100Z,1.43
2023-02-03T06:25:43.756Z,3.60
2023-02-03T06:28:10.561Z,1.33
2023-02-03T06:30:37.397Z,1.10
2023-02-03T06:33:04.154Z,1.27
2023-02-03T06:35:31.090Z,1.17
2023-02-03T06:37:57.724Z,0.30
2023-02-03T06:40:24.395Z,0.47
2023-02-03T06:42:51.409Z,0.20
2023-02-03T06:45:18.111Z,1.63
2023-02-03T06:47:45.705Z,0.33
2023-02-03T06:50:14.195Z,2.43
2023-02-03T06:52:40.851Z,1.50
2023-02-03T06:55:08.290Z,0.63
2023-02-03T06:57:34.928Z,0.20
2023-02-03T07:00:01.667Z,0.83
2023-02-03T07:02:28.405Z,0.10
2023-02-03T07:04:54.997Z,0.47
2023-02-03T07:07:21.550Z,0.20
2023-02-03T07:09:48.168Z,1.17
2023-02-03T07:12:14.869Z,0.20
2023-02-03T07:14:41.538Z,0.20
2023-02-03T07:17:08.165Z,0.20
2023-02-03T07:19:34.800Z,0.23
2023-02-03T07:22:01.413Z,0.60
2023-02-03T07:24:27.987Z,0.30
2023-02-03T07:26:54.656Z,0.20
2023-02-03T07:29:21.271Z,0.20
2023-02-03T07:31:47.904Z,1.23
2023-02-03T07:34:14.517Z,0.40
2023-02-03T07:36:41.550Z,0.77
2023-02-03T07:39:08.288Z,1.53
2023-02-03T07:41:35.020Z,0.50
2023-02-03T07:44:01.673Z,0.50
2023-02-03T07:46:28.314Z,0.30
2023-02-03T07:48:54.981Z,0.60
2023-02-03T07:51:21.618Z,0.60
2023-02-03T07:53:48.313Z,1.10
2023-02-03T07:56:14.985Z,0.80
2023-02-03T07:58:41.833Z,0.40
2023-02-03T08:01:13.541Z,0.83
2023-02-03T08:03:41.380Z,0.67
2023-02-03T08:06:10.121Z,0.60
2023-02-03T08:08:41.323Z,0.63
2023-02-03T08:11:10.660Z,0.40
2023-02-03T08:13:39.877Z,0.40
2023-02-03T08:16:07.615Z,1.23
2023-02-03T08:18:35.028Z,0.40
2023-02-03T08:21:05.237Z,0.30
2023-02-03T08:23:34.528Z,0.77
2023-02-03T08:26:03.048Z,0.43
2023-02-03T08:28:30.499Z,1.03
2023-02-03T08:30:58.182Z,0.67
2023-02-03T08:33:26.449Z,0.50
2023-02-03T08:35:54.968Z,0.40
2023-02-03T08:38:25.019Z,2.20
2023-02-03T08:40:52.631Z,0.50
2023-02-03T08:43:20.454Z,0.30
2023-02-03T08:45:49.751Z,1.47
2023-02-03T08:48:21.850Z,1.20
2023-02-03T09:44:54.201Z,0.40
2023-02-03T09:47:25.515Z,0.73
2023-02-03T09:49:56.991Z,0.67
2023-02-03T09:52:26.885Z,0.40
2023-02-03T09:55:19.042Z,0.57
2023-02-03T09:58:07.252Z,1.53
2023-02-03T10:00:38.287Z,0.30
2023-02-03T10:03:29.370Z,0.30
2023-02-03T10:06:01.826Z,0.50
2023-02-03T10:08:46.811Z,0.77
2023-02-03T10:11:39.662Z,0.27
2023-02-03T10:14:29.652Z,0.50
2023-02-03T10:17:29.508Z,0.50
2023-02-03T10:20:21.966Z,0.20
2023-02-03T10:22:53.420Z,0.73
2023-02-03T10:25:25.078Z,0.60
2023-02-03T10:27:58.939Z,0.70
2023-02-03T10:30:29.009Z,0.30
2023-02-03T10:33:17.671Z,0.40
2023-02-03T10:35:44.298Z,0.37
2023-02-03T10:38:18.799Z,1.60
2023-02-03T10:40:45.618Z,0.13
2023-02-03T10:43:31.048Z,0.20
2023-02-03T10:45:58.610Z,0.20
2023-02-03T10:48:25.621Z,0.20
2023-02-03T10:50:52.478Z,0.10
2023-02-03T10:53:32.469Z,0.20
2023-02-03T10:56:06.501Z,0.80
2023-02-03T10:58:34.278Z,0.60
2023-02-03T11:01:12.552Z,0.20
2023-02-03T11:03:43.562Z,0.20
2023-02-03T11:06:15.678Z,0.40
2023-02-03T11:08:45.133Z,0.43
2023-02-03T11:11:20.398Z,0.70
2023-02-03T11:13:48.940Z,0.50
2023-02-03T11:16:22.398Z,0.40
2023-02-03T11:19:04.322Z,0.23
2023-02-03T11:21:37.103Z,0.30
2023-02-03T11:24:07.252Z,0.30
2023-02-03T11:26:46.052Z,0.77
2023-02-03T11:29:24.038Z,0.40
2023-02-03T11:31:52.697Z,0.10
2023-02-03T11:34:34.444Z,0.20
2023-02-03T11:37:39.737Z,0.10
2023-02-03T11:40:11.073Z,0.13
2023-02-03T11:42:43.082Z,0.40
2023-02-03T11:45:26.019Z,0.20
2023-02-03T11:48:19.927Z,0.70
2023-02-03T11:51:04.738Z,0.20
2023-02-03T11:53:56.262Z,0.50
2023-02-03T11:56:41.590Z,0.60
2023-02-03T11:59:40.333Z,0.30
2023-02-03T12:02:23.571Z,0.30
2023-02-03T12:05:14.933Z,0.20
2023-02-03T12:07:59.922Z,0.40
2023-02-03T12:11:11.039Z,0.20
2023-02-03T12:14:02.062Z,0.20
2023-02-03T12:16:49.999Z,0.33
2023-02-03T12:19:19.223Z,0.20
2023-02-03T13:37:17.890Z,0.10
2023-02-03T13:40:04.682Z,0.73
2023-02-03T13:42:33.041Z,0.20
2023-02-03T13:45:15.195Z,0.40
2023-02-03T13:47:46.700Z,1.20
2023-02-03T13:50:31.826Z,0.20
2023-02-03T13:53:17.210Z,0.20
2023-02-03T13:55:54.951Z,0.60
2023-02-03T13:58:33.507Z,0.23
2023-02-03T14:01:03.769Z,0.10
2023-02-03T14:03:30.280Z,0.50
2023-02-03T14:05:59.297Z,0.20
2023-02-03T14:08:25.957Z,0.27
2023-02-03T14:11:36.342Z,0.20
2023-02-03T14:14:10.870Z,0.80
2023-02-03T14:16:54.832Z,0.47
2023-02-03T14:19:26.829Z,0.30
2023-02-03T14:22:30.923Z,0.30
2023-02-03T14:25:08.151Z,0.43
2023-02-03T14:27:36.963Z,0.77
2023-02-03T14:30:15.589Z,0.23
2023-02-03T14:32:59.305Z,0.37
2023-02-03T14:35:43.113Z,1.13
2023-02-03T14:38:17.120Z,0.40
2023-02-03T14:41:02.675Z,0.40
2023-02-03T14:43:47.640Z,0.90
2023-02-03T14:46:47.617Z,0.30
2023-02-03T14:49:31.068Z,1.37
2023-02-03T14:52:30.147Z,0.83
2023-02-03T14:55:16.537Z,0.73
2023-02-03T14:57:50.129Z,0.70
2023-02-03T15:00:30.183Z,0.30
2023-02-03T15:03:12.594Z,0.50
2023-02-03T15:05:58.081Z,0.20
2023-02-03T15:08:55.677Z,1.10
2023-02-03T15:11:26.018Z,0.60
2023-02-03T15:13:59.882Z,0.87
2023-02-03T15:16:37.039Z,0.30
2023-02-03T15:19:26.559Z,0.40
2023-02-03T15:21:59.738Z,0.73
2023-02-03T15:24:49.111Z,0.70
2023-02-03T15:27:51.681Z,0.30
2023-02-03T15:30:34.085Z,0.53
2023-02-03T15:33:10.456Z,0.30
2023-02-03T15:35:42.856Z,0.30
2023-02-03T15:38:28.018Z,0.70
2023-02-03T15:41:00.532Z,0.30
2023-02-03T15:43:40.809Z,0.47
2023-02-03T15:46:20.005Z,0.50
2023-02-03T15:49:04.255Z,0.30
2023-02-03T15:51:47.295Z,0.30
2023-02-03T15:54:20.016Z,0.20
2023-02-03T15:56:55.245Z,0.20
2023-02-03T15:59:34.193Z,0.50
2023-02-03T16:02:09.203Z,1.00
2023-02-03T16:04:37.019Z,0.40
2023-02-03T16:07:05.874Z,0.50
2023-02-03T16:09:43.193Z,0.73
2023-02-03T16:12:34.581Z,0.27
2023-02-03T16:15:11.279Z,0.30
2023-02-03T16:17:43.463Z,0.57
2023-02-03T16:20:31.665Z,0.50
2023-02-03T16:23:22.017Z,0.83
2023-02-03T16:26:16.721Z,0.97
2023-02-03T16:29:42.116Z,0.57
2023-02-03T18:43:52.869Z,2.50
2023-02-03T18:47:25.264Z,3.37
2023-02-03T18:49:57.750Z,0.80
2023-02-03T18:52:30.277Z,0.57
2023-02-03T18:54:58.390Z,1.07
2023-02-03T18:57:29.488Z,0.77
2023-02-03T19:00:04.474Z,0.90
2023-02-03T19:06:21.708Z,0.50
2023-02-03T19:08:48.254Z,0.60
2023-02-03T19:11:15.899Z,0.97
2023-02-03T19:13:43.965Z,1.37
2023-02-03T19:16:14.555Z,1.00
2023-02-03T19:18:41.067Z,0.60
2023-02-03T19:21:07.602Z,1.80
2023-02-03T19:23:34.053Z,1.10
2023-02-03T19:26:00.517Z,0.60
2023-02-03T19:28:31.252Z,0.70
2023-02-03T19:31:08.397Z,0.70
2023-02-03T19:33:35.669Z,0.77
2023-02-03T19:36:05.854Z,1.17
2023-02-03T19:38:32.351Z,0.60
2023-02-03T19:41:01.554Z,0.73
2023-02-03T19:43:28.468Z,0.80
2023-02-03T19:45:54.949Z,1.10
2023-02-03T19:48:21.374Z,1.57
2023-02-03T19:50:50.180Z,1.97
2023-02-03T19:53:17.178Z,1.10
2023-02-03T19:55:44.038Z,1.20
2023-02-03T19:58:14.245Z,0.63
2023-02-03T20:00:40.994Z,1.10
2023-02-03T20:03:07.447Z,1.50
2023-02-03T20:05:34.469Z,1.10
2023-02-03T20:08:01.011Z,0.97
2023-02-03T20:10:29.340Z,4.47
2023-02-03T20:12:55.919Z,1.10
2023-02-03T20:15:22.408Z,2.07
2023-02-03T20:17:53.340Z,0.93
2023-02-03T20:20:20.861Z,1.77
2023-02-03T20:22:47.614Z,2.50
2023-02-03T20:25:14.269Z,2.10
2023-02-03T20:27:40.828Z,2.37
2023-02-03T20:30:07.645Z,1.60
2023-02-03T20:32:34.527Z,1.07
2023-02-03T20:35:01.308Z,2.13
2023-02-03T20:37:27.874Z,0.70
2023-02-03T20:39:54.474Z,2.00
2023-02-03T20:42:20.911Z,2.27
2023-02-03T20:44:47.406Z,2.43
2023-02-03T20:47:14.680Z,3.23
2023-02-03T20:49:41.244Z,1.47
2023-02-03T20:52:19.362Z,1.63
2023-02-03T20:54:46.300Z,2.63
2023-02-03T20:57:17.244Z,1.57
2023-02-03T20:59:48.917Z,2.70
2023-02-03T21:02:25.799Z,2.30
2023-02-03T21:05:00.586Z,2.07
2023-02-03T21:07:32.766Z,5.57
2023-02-03T21:10:00.096Z,4.57
2023-02-03T21:12:31.454Z,3.00
2023-02-03T21:14:59.205Z,4.03
2023-02-03T21:17:26.342Z,2.73
2023-02-03T21:19:53.663Z,5.27
2023-02-03T21:22:22.600Z,3.17
2023-02-03T21:24:53.202Z,3.30
2023-02-03T21:27:24.351Z,2.83
2023-02-03T21:29:51.827Z,1.87
2023-02-03T21:32:18.296Z,3.67
2023-02-03T21:34:45.731Z,2.57
2023-02-03T21:37:21.357Z,3.13
2023-02-03T21:39:50.696Z,1.73
2023-02-03T21:42:17.203Z,2.50
2023-02-03T21:44:45.411Z,1.83
2023-02-03T21:47:17.873Z,3.07
2023-02-03T21:49:44.375Z,3.43
2023-02-03T21:52:14.133Z,2.50
2023-02-03T21:54:42.898Z,2.60
2023-02-03T21:57:18.413Z,1.93
2023-02-03T21:59:49.267Z,1.97
2023-02-03T22:02:34.400Z,2.60
2023-02-03T22:05:02.618Z,2.47
2023-02-03T22:07:30.283Z,1.50
2023-02-03T22:09:56.719Z,1.33
2023-02-03T22:12:24.421Z,2.10
2023-02-03T22:14:50.842Z,1.47
2023-02-03T22:17:19.901Z,1.07
2023-02-03T22:19:48.330Z,0.90
2023-02-03T22:22:17.191Z,0.77
2023-02-03T22:24:44.398Z,2.07
2023-02-03T22:27:10.933Z,0.97
2023-02-03T22:29:37.853Z,1.87
2023-02-03T22:32:04.345Z,1.60
2023-02-03T22:34:30.851Z,0.93
2023-02-03T22:36:57.342Z,1.00
2023-02-03T22:39:23.934Z,1.97
2023-02-03T22:41:50.375Z,1.17
2023-02-03T22:44:18.331Z,1.70
2023-02-03T22:46:44.771Z,0.93
2023-02-03T22:49:13.162Z,1.87
2023-02-03T22:51:40.158Z,1.70
2023-02-03T22:54:08.791Z,1.43
2023-02-03T22:56:36.648Z,0.97
2023-02-03T22:59:03.039Z,1.80
2023-02-03T23:01:29.422Z,0.80
2023-02-03T23:06:37.467Z,2.87
2023-02-03T23:09:03.938Z,1.87
2023-02-03T23:11:30.362Z,2.53
2023-02-03T23:13:56.758Z,3.70
2023-02-03T23:16:23.204Z,2.20
2023-02-03T23:18:50.903Z,3.30
2023-02-03T23:21:17.469Z,1.77
2023-02-03T23:23:43.910Z,3.47
2023-02-03T23:26:17.866Z,4.53
2023-02-03T23:28:44.434Z,5.57
2023-02-03T23:31:10.967Z,1.23
2023-02-03T23:33:37.528Z,3.30
2023-02-03T23:36:06.188Z,2.07
2023-02-03T23:38:33.486Z,2.23
2023-02-03T23:41:06.285Z,1.50
2023-02-03T23:43:32.768Z,2.40
2023-02-03T23:46:02.718Z,3.33
2023-02-03T23:48:29.179Z,2.73
2023-02-03T23:50:55.562Z,2.20
2023-02-03T23:53:22.072Z,1.47
2023-02-03T23:55:48.482Z,1.37
2023-02-03T23:58:14.996Z,2.90
